Hillsboro, IL (62049)

11:15 PM CST on February 09, 2016 (GMT -0600)
APRSWXNET | | Change Station
CLOSE
Current Station
Personal Weather Station
Location: Butler, IL
Elevation: 623 ft
Nearby Weather Stations

Elev 623 ft 39.20 °N, 89.50 °W | Updated 20 minutes ago

Clear
Clear
15 °F
Feels Like 6 °F
N
6
Wind Variable Wind from NW
Gusts 13.0 mph

Today
High -- | Low -- °F
--% Chance of Precip.
Yesterday
High -- | Low -- °F
Precip. -- in
Pressure 30.10 in
Visibility 10.0 miles
Clouds Mostly Cloudy 2600 ft
Windchill 6 °F
Dew Point 9 °F
Humidity 76%
Rainfall in
Snow Depth Not available.
6:57 AM 5:27 PM
Waxing Crescent, 3% visible
METAR K3LF 100455Z AUTO 31017G22KT 10SM BKN026 M09/M14 A3010 RMK AO2 T10951142
Pressure 30.10 in
Visibility 10.0 miles
Clouds Mostly Cloudy 2600 ft
Windchill 6 °F
Dew Point 9 °F
Humidity 76%
Rainfall in
Snow Depth Not available.
6:57 AM 5:27 PM
Waxing Crescent, 3% visible
METAR K3LF 100455Z AUTO 31017G22KT 10SM BKN026 M09/M14 A3010 RMK AO2 T10951142

10-Day Weather Forecast

Almanac

Astronomy

Feb. 09, 2016 Rise Set
Actual Time
Civil Twilight
Nautical Twilight
Astronomical Twilight
Moon
Length of Visible Light
Length of Day
Tomorrow will be .
, % of the Moon is Illuminated

Today's Extremes

State Highs State Lows

Community

WunderPhotos

Upload Photos

1,891,818 photos uploaded!

WunderBlog® & News

Nearby

Air Quality

  Air Quality AQ Index Pollutant
Not available.

Snow Depth

Station Depth Elevation

Earthquake Activity

City Distance Mag. Time & Date
Minimum magnitude displayed is 2.5.

Coastal Water Temperatures

Place Temperature

Stations

Nearby Weather Stations

Station Location Temp. Windchill Dew Point Humidity Wind Precip. Elev Updated Type
                   

Watches & Warnings

There are currently no watches in effect.